Flight Track Log - Related Links

Times and Time Zones

All times are in EST time to prevent confusion due to time zone crossing. See the UAL129 flight status page for this flight to view local times or setup timezone preferences in your user account.

Time Position Orientation Groundspeed Altitude Reporting Facility
EST Latitude Longitude Course Direction KTS MPH feet Rate Location/Type
Sun 10:43:02 PM 29.9568 -95.3359 142° Southeast 191 220 500  Level FlightAware ADS-B
Sun 10:43:06 PM 29.9540 -95.3334 132° Southeast 191 220 700 3,600 Climbing FlightAware ADS-B
Sun 10:43:12 PM 29.9505 -95.3289 126° Southeast 191 220 1,100 2,182 Climbing FlightAware ADS-B
Sun 10:43:28 PM 29.9441 -95.3186 124° Southeast 191 220 1,500 1,241 Climbing FlightAware ADS-B
Sun 10:43:41 PM 29.9379 -95.3078 123° Southeast 211 243 1,700 889 Climbing FlightAware ADS-B
Sun 10:43:55 PM 29.9278 -95.2896 124° Southeast 235 270 1,900 1,071 Climbing FlightAware ADS-B
Sun 10:44:09 PM 29.9185 -95.2737 124° Southeast 253 291 2,200 1,680 Climbing FlightAware ADS-B
Sun 10:44:20 PM 29.9114 -95.2616 121° Southeast 256 295 2,600 2,333 Climbing FlightAware ADS-B
Sun 10:44:27 PM 29.9070 -95.2532 116° Southeast 257 296 2,900 2,625 Climbing FlightAware ADS-B
Sun 10:44:36 PM 29.9024 -95.2422 114° Southeast 261 300 3,300 2,143 Climbing FlightAware ADS-B
Sun 10:44:41 PM 29.9000 -95.2359 111° Southeast 264 304 3,400 1,636 Climbing FlightAware ADS-B
Sun 10:44:47 PM 29.8974 -95.2280 107° East 268 308 3,600 2,182 Climbing FlightAware ADS-B
Sun 10:44:52 PM 29.8953 -95.2202 102° East 271 312 3,800 2,333 Climbing FlightAware ADS-B
Sun 10:45:05 PM 29.8921 -95.2024 101° East 279 321 4,300 1,846 Climbing FlightAware ADS-B
Sun 10:45:18 PM 29.8886 -95.1823 101° East 286 329 4,600 828 Climbing FlightAware ADS-B
Sun 10:45:34 PM 29.8847 -95.1596 102° East 288 331 4,700 200 Climbing FlightAware ADS-B
Sun 10:45:48 PM 29.8809 -95.1384 102° East 287 330 4,700 621 Level FlightAware ADS-B
Sun 10:46:03 PM 29.8766 -95.1155 102° East 289 333 5,000 2,400 Climbing FlightAware ADS-B
Sun 10:46:18 PM 29.8723 -95.0929 103° East 284 327 5,900 3,000 Climbing FlightAware ADS-B
Sun 10:46:33 PM 29.8679 -95.0704 102° East 287 330 6,500 2,323 Climbing FlightAware ADS-B
Sun 10:46:49 PM 29.8636 -95.0470 103° East 291 335 7,100 2,323 Climbing FlightAware ADS-B
Sun 10:47:04 PM 29.8591 -95.0239 103° East 296 341 7,700 2,323 Climbing FlightAware ADS-B
Sun 10:47:20 PM 29.8543 -94.9993 103° East 302 348 8,300 2,323 Climbing FlightAware ADS-B
Sun 10:47:35 PM 29.8495 -94.9754 103° East 303 349 8,900 2,516 Climbing FlightAware ADS-B
Sun 10:47:51 PM 29.8445 -94.9499 103° East 304 350 9,600 1,935 Climbing FlightAware ADS-B
Sun 10:48:06 PM 29.8397 -94.9255 103° East 314 361 9,900 1,043 Climbing FlightAware ADS-B
Sun 10:48:37 PM 29.8294 -94.8731 103° East 349 402 10,400 984 Climbing FlightAware ADS-B
Sun 10:49:07 PM 29.8181 -94.8156 103° East 381 438 10,900 1,000 Climbing FlightAware ADS-B
Sun 10:49:37 PM 29.8057 -94.7528 103° East 410 472 11,400 1,377 Climbing FlightAware ADS-B
Sun 10:50:08 PM 29.7930 -94.6872 103° East 426 490 12,300 1,967 Climbing FlightAware ADS-B
Sun 10:50:38 PM 29.7798 -94.6201 102° East 434 499 13,400 2,300 Climbing FlightAware ADS-B
Sun 10:51:08 PM 29.7671 -94.5513 102° East 440 506 14,600 2,200 Climbing FlightAware ADS-B
Sun 10:51:38 PM 29.7544 -94.4817 102° East 448 516 15,600 2,000 Climbing FlightAware ADS-B
Sun 10:52:08 PM 29.7413 -94.4101 102° East 457 526 16,600 1,770 Climbing FlightAware ADS-B
Sun 10:52:39 PM 29.7278 -94.3372 102° East 467 537 17,400 1,770 Climbing FlightAware ADS-B
Sun 10:53:09 PM 29.7142 -94.2638 102° East 472 543 18,400 1,900 Climbing FlightAware ADS-B
Sun 10:53:39 PM 29.7002 -94.1891 102° East 479 551 19,300 1,800 Climbing FlightAware ADS-B
Sun 10:54:09 PM 29.6861 -94.1139 102° East 484 557 20,200 1,700 Climbing FlightAware ADS-B
Sun 10:54:39 PM 29.6717 -94.0379 102° East 490 564 21,000 1,700 Climbing FlightAware ADS-B
Sun 10:55:09 PM 29.6572 -93.9611 102° East 494 568 21,900 1,672 Climbing FlightAware ADS-B
Sun 10:55:40 PM 29.6425 -93.8833 102° East 497 572 22,700 1,574 Climbing FlightAware ADS-B
Sun 10:56:10 PM 29.6277 -93.8054 102° East 502 578 23,500 1,500 Climbing FlightAware ADS-B
Sun 10:56:40 PM 29.6124 -93.7254 102° East 507 583 24,200 1,300 Climbing FlightAware ADS-B
Sun 10:57:10 PM 29.5972 -93.6459 102° East 513 590 24,800 1,574 Climbing FlightAware ADS-B
Sun 10:57:41 PM 29.5817 -93.5653 103° East 511 588 25,800 1,742 Climbing FlightAware ADS-B
Sun 10:58:12 PM 29.5657 -93.4832 102° East 512 589 26,600 1,574 Climbing FlightAware ADS-B
Sun 10:58:42 PM 29.5503 -93.4029 103° East 510 587 27,400 1,500 Climbing FlightAware ADS-B
Sun 10:59:12 PM 29.5346 -93.3229 102° East 510 587 28,100 1,333 Climbing FlightAware ADS-B
Sun 10:59:45 PM 29.5178 -93.2359 103° East 510 587 28,800 1,313 Climbing FlightAware ADS-B
Sun 11:00:16 PM 29.5017 -93.1538 103° East 511 588 29,500 1,258 Climbing FlightAware ADS-B
Sun 11:00:47 PM 29.4857 -93.0722 103° East 511 588 30,100 1,258 Climbing FlightAware ADS-B
Sun 11:01:18 PM 29.4698 -92.9912 103° East 508 585 30,800 871 Climbing FlightAware ADS-B
Sun 11:01:49 PM 29.4536 -92.9102 103° East 515 593 31,000 197 Climbing FlightAware ADS-B
Sun 11:02:19 PM 29.4377 -92.8299 103° East 520 598 31,000  Level FlightAware ADS-B
Sun 11:02:54 PM 29.4190 -92.7360 103° East 521 600 31,000  Level FlightAware ADS-B
Sun 11:03:25 PM 29.4023 -92.6530 103° East 520 598 31,000  Level FlightAware ADS-B
Sun 11:04:08 PM 29.3792 -92.5378 103° East 517 595 31,000  Level FlightAware ADS-B
Sun 11:05:19 PM 29.3409 -92.3487 103° East 515 593 31,000  Level FlightAware ADS-B
Sun 11:05:55 PM 29.3216 -92.2543 103° East 514 592 31,000  Level FlightAware ADS-B
Sun 11:06:29 PM 29.3031 -92.1631 103° East 514 592 31,000  Level FlightAware ADS-B
Sun 11:07:42 PM 29.2636 -91.9709 105° East 515 593 31,000  Level FlightAware ADS-B
Sun 11:08:52 PM 29.2269 -91.8158 104° East 509 586 31,000  Level Houston Center
Sun 11:09:52 PM 29.1875 -91.6397 104° East 514 592 31,000 -50 Level Houston Center
Sun 11:10:52 PM 29.1539 -91.4803 104° East 509 586 30,900  Descending Houston Center
Sun 11:11:52 PM 29.1181 -91.3186 102° East 509 586 31,000 50 Climbing Houston Center
Sun 11:12:52 PM 29.0883 -91.1617 105° East 509 586 31,000  Level Houston Center
Sun 11:13:52 PM 29.0522 -91.0028 104° East 509 586 31,000  Level Houston Center
Sun 11:14:52 PM 29.0181 -90.8439 104° East 509 586 31,000 -50 Level Houston Center
Sun 11:15:52 PM 28.9814 -90.6778 104° East 517 595 30,900 -50 Descending Houston Center
Sun 11:16:52 PM 28.9467 -90.5189 106° East 517 595 30,900 50 Level Houston Center
Sun 11:17:52 PM 28.9078 -90.3603 107° East 517 595 31,000  Climbing Houston Center
Sun 11:18:52 PM 28.8664 -90.2019 105° East 517 595 30,900 -50 Descending Houston Center
Sun 11:19:52 PM 28.8269 -90.0389 105° East 512 589 30,900 50 Level Houston Center
Sun 11:20:52 PM 28.7939 -89.8947 106° East 519 597 31,000 50 Climbing Houston Center
Sun 11:21:52 PM 28.7542 -89.7367 105° East 519 597 31,000  Level Houston Center
Sun 11:22:52 PM 28.7164 -89.5808 106° East 519 597 31,000  Level Houston Center
Sun 11:23:52 PM 28.6761 -89.4231 105° East 513 590 31,000  Level Houston Center
Sun 11:24:52 PM 28.6381 -89.2606 105° East 513 590 31,000  Level Houston Center
Sun 11:25:52 PM 28.5994 -89.1006 107° East 513 590 31,000  Level Houston Center
Sun 11:26:52 PM 28.5569 -88.9453 106° East 513 590 31,000  Level Houston Center
Sun 11:28:26 PM 28.4872 -88.6756 106° East 553 636 31,000  Level Jacksonville Center
Sun 11:29:26 PM 28.4500 -88.5250 106° East 524 603 31,000  Level Jacksonville Center
Sun 11:30:26 PM 28.4072 -88.3597 107° East 529 609 31,000  Level Jacksonville Center
Sun 11:31:26 PM 28.3656 -88.2042 106° East 522 601 31,000  Level Jacksonville Center
Sun 11:32:26 PM 28.3244 -88.0417 104° East 530 610 31,000 -50 Level Jacksonville Center
Sun 11:33:26 PM 28.2942 -87.9083 107° East 516 594 30,900 -50 Descending Jacksonville Center
Sun 11:34:26 PM 28.2522 -87.7508 110° East 507 583 30,900 50 Level Jacksonville Center
Sun 11:35:26 PM 28.1997 -87.5906 110° East 514 592 31,000 50 Climbing Jacksonville Center
Sun 11:36:26 PM 28.1508 -87.4400 110° East 513 590 31,000  Level Jacksonville Center
Sun 11:37:26 PM 28.1000 -87.2825 112° Southeast 532 612 31,000  Level Jacksonville Center
Sun 11:38:26 PM 28.0431 -87.1200 111° Southeast 532 612 31,000  Level Jacksonville Center
Sun 11:39:26 PM 27.9917 -86.9653 110° East 534 615 31,000  Level Jacksonville Center
Sun 11:40:26 PM 27.9403 -86.8036 112° Southeast 541 623 31,000  Level Jacksonville Center
Sun 11:41:26 PM 27.8828 -86.6394 111° Southeast 547 629 31,000  Level Jacksonville Center
Sun 11:42:26 PM 27.8289 -86.4803 112° Southeast 545 627 31,000  Level Jacksonville Center
Sun 11:43:26 PM 27.7744 -86.3258 112° Southeast 539 620 31,000  Level Jacksonville Center
Sun 11:44:26 PM 27.7183 -86.1669 112° Southeast 539 620 31,000  Level Jacksonville Center
Sun 11:46:25 PM 27.5989 -85.8358 111° Southeast 537 618 31,000  Level Miami Center
Sun 11:47:26 PM 27.5461 -85.6797 112° Southeast 532 612 31,000  Level Miami Center
Sun 11:48:26 PM 27.4908 -85.5258 114° Southeast 527 606 31,000 -50 Level Miami Center
Sun 11:49:26 PM 27.4292 -85.3717 110° East 527 606 30,900 -50 Descending Miami Center
Sun 11:50:25 PM 27.3797 -85.2211 110° East 527 606 30,900  Level Miami Center
Sun 11:51:27 PM 27.3283 -85.0633 111° Southeast 527 606 30,900 50 Level Miami Center
Sun 11:52:25 PM 27.2744 -84.9078 113° Southeast 532 612 31,000 50 Climbing Miami Center
Sun 11:53:26 PM 27.2144 -84.7519 112° Southeast 532 612 31,000  Level Miami Center
Sun 11:54:26 PM 27.1600 -84.5992 111° Southeast 527 606 31,000  Level Miami Center
Sun 11:55:25 PM 27.1058 -84.4442 112° Southeast 527 606 31,000  Level Miami Center
Sun 11:56:26 PM 27.0492 -84.2892 113° Southeast 527 606 31,000  Level Miami Center
Sun 11:57:25 PM 26.9922 -84.1364 112° Southeast 532 612 31,000  Level Miami Center
Sun 11:58:27 PM 26.9372 -83.9817 112° Southeast 527 606 31,000 -49 Level Miami Center
Sun 11:59:27 PM 26.8842 -83.8319 114° Southeast 521 600 30,900  Descending Miami Center
Mon 12:00:25 AM 26.8267 -83.6844 113° Southeast 521 600 31,000 51 Climbing Miami Center
Mon 12:01:25 AM 26.7728 -83.5394 112° Southeast 515 593 31,000  Level Miami Center
Mon 12:02:25 AM 26.7192 -83.3900 113° Southeast 510 587 31,000  Level Miami Center
Mon 12:03:26 AM 26.6631 -83.2453 112° Southeast 510 587 31,000 -49 Level Miami Center
Mon 12:04:27 AM 26.6089 -83.0983 113° Southeast 505 581 30,900 -50 Descending Miami Center
Mon 12:05:27 AM 26.5542 -82.9564 112° Southeast 505 581 30,900 51 Level Miami Center
Mon 12:06:25 AM 26.5000 -82.8075 113° Southeast 505 581 31,000  Climbing Miami Center
Mon 12:07:25 AM 26.4433 -82.6608 113° Southeast 505 581 30,900  Descending Miami Center
Mon 12:08:25 AM 26.3864 -82.5144 113° Southeast 505 581 31,000 50 Climbing Miami Center
Mon 12:09:25 AM 26.3294 -82.3633 113° Southeast 505 581 31,000  Level Miami Center
Mon 12:10:25 AM 26.2725 -82.2150 113° Southeast 511 588 31,000 -50 Level Miami Center
Mon 12:11:25 AM 26.2172 -82.0689 112° Southeast 511 588 30,900 -50 Descending Miami Center
Mon 12:12:25 AM 26.1697 -81.9350 113° Southeast 511 588 30,900 50 Level Miami Center
Mon 12:13:26 AM 26.1122 -81.7869 113° Southeast 511 588 31,000  Climbing Miami Center
Mon 12:14:26 AM 26.0564 -81.6414 113° Southeast 505 581 30,900  Descending Miami Center
Mon 12:15:27 AM 25.9986 -81.4933 114° Southeast 505 581 31,000 49 Climbing Miami Center
Mon 12:16:28 AM 25.9406 -81.3456 114° Southeast 511 588 31,000  Level Miami Center
Mon 12:17:26 AM 25.8822 -81.2003 113° Southeast 511 588 31,000  Level Miami Center
Mon 12:18:26 AM 25.8258 -81.0553 114° Southeast 511 588 31,000  Level Miami Center
Mon 12:19:27 AM 25.7672 -80.9103 114° Southeast 511 588 31,000 -50 Level Miami Center
Mon 12:20:26 AM 25.7106 -80.7678 115° Southeast 511 588 30,900  Descending Miami Center
Mon 12:21:26 AM 25.6497 -80.6206 114° Southeast 511 588 31,000 49 Climbing Miami Center
Mon 12:22:28 AM 25.5869 -80.4642 114° Southeast 506 582 31,000  Level Miami Center
Mon 12:23:26 AM 25.5297 -80.3197 114° Southeast 520 598 31,000 -51 Level Miami Center
Mon 12:24:26 AM 25.4744 -80.1825 114° Southeast 503 579 30,900  Descending Miami Center
Mon 12:25:27 AM 25.4189 -80.0431 115° Southeast 491 565 31,000 50 Climbing Miami Center
Mon 12:26:26 AM 25.3614 -79.9036 114° Southeast 491 565 31,000 -50 Level Miami Center
Mon 12:27:26 AM 25.3036 -79.7619 114° Southeast 491 565 30,900 -50 Descending Miami Center
Mon 12:28:26 AM 25.2458 -79.6181 114° Southeast 496 571 30,900  Level Miami Center
Mon 12:29:26 AM 25.1878 -79.4767 114° Southeast 496 571 30,900 50 Level Miami Center
Mon 12:30:26 AM 25.1317 -79.3378 115° Southeast 501 577 31,000  Climbing Miami Center
Mon 12:31:26 AM 25.0733 -79.2014 115° Southeast 501 577 30,900  Descending Miami Center
Mon 12:32:26 AM 25.0147 -79.0625 113° Southeast 495 570 31,000 49 Climbing Miami Center
Mon 12:33:28 AM 24.9625 -78.9286 115° Southeast 483 556 31,000  Level Miami Center
Mon 12:34:28 AM 24.9036 -78.7925 115° Southeast 483 556 31,000  Level Miami Center
Mon 12:35:27 AM 24.8469 -78.6567 115° Southeast 488 562 31,000  Level Miami Center
Mon 12:36:28 AM 24.7900 -78.5206 114° Southeast 488 562 31,000  Level Miami Center
Mon 12:37:28 AM 24.7350 -78.3872 116° Southeast 483 556 31,000  Level Miami Center
Mon 12:38:26 AM 24.6756 -78.2561 113° Southeast 483 556 31,000  Level Miami Center
Mon 12:39:28 AM 24.6244 -78.1253 116° Southeast 478 550 31,000  Level Miami Center
Mon 12:40:27 AM 24.5669 -77.9967 115° Southeast 468 539 31,000  Level Miami Center
Mon 12:41:27 AM 24.5117 -77.8661 114° Southeast 468 539 31,000  Level Miami Center
Mon 12:42:28 AM 24.4581 -77.7356 116° Southeast 468 539 31,000  Level Miami Center
Mon 12:43:26 AM 24.4003 -77.6072 115° Southeast 468 539 31,000 51 Level Miami Center
Mon 12:44:26 AM 24.3444 -77.4769 114° Southeast 468 539 31,100 248 Climbing Miami Center
Mon 12:45:27 AM 24.2906 -77.3467 115° Southeast 468 539 31,500 393 Climbing Miami Center
Mon 12:46:28 AM 24.2344 -77.2119 115° Southeast 468 539 31,900 397 Climbing Miami Center
Mon 12:47:28 AM 24.1783 -77.0797 116° Southeast 468 539 32,300 397 Climbing Miami Center
Mon 12:48:29 AM 24.1200 -76.9478 115° Southeast 473 544 32,700 353 Climbing Miami Center
Mon 12:49:27 AM 24.0636 -76.8178 116° Southeast 473 544 33,000 153 Climbing Miami Center
Mon 12:50:27 AM 24.0028 -76.6836 115° Southeast 473 544 33,000  Level Miami Center
Mon 12:51:28 AM 23.9461 -76.5497 116° Southeast 473 544 33,000  Level Miami Center
Mon 12:52:26 AM 23.8872 -76.4158 115° Southeast 479 551 33,000  Level Miami Center
Mon 12:53:27 AM 23.8303 -76.2842 116° Southeast 479 551 33,000  Level Miami Center
Mon 12:54:27 AM 23.7714 -76.1506 115° Southeast 484 557 33,000  Level Miami Center
Mon 12:55:26 AM 23.7142 -76.0169 115° Southeast 489 563 33,000  Level Miami Center
Mon 12:56:26 AM 23.6633 -75.8969 115° Southeast 483 556 33,000  Level Miami Center
Mon 12:57:26 AM 23.6058 -75.7614 116° Southeast 483 556 33,000  Level Miami Center
Mon 12:58:26 AM 23.5442 -75.6236 118° Southeast 488 562 33,000  Level Miami Center
Mon 12:59:26 AM 23.4803 -75.4928 116° Southeast 488 562 33,000  Level Miami Center
Mon 01:00:26 AM 23.4228 -75.3644 116° Southeast 488 562 33,000  Level Miami Center
Mon 01:01:26 AM 23.3628 -75.2317 116° Southeast 488 562 33,000  Level Miami Center
Mon 01:02:27 AM 23.3028 -75.0989 116° Southeast 488 562 33,000  Level Miami Center
Mon 01:03:27 AM 23.2447 -74.9686 116° Southeast 488 562 33,000  Level Miami Center
Mon 01:04:26 AM 23.1847 -74.8361 118° Southeast 488 562 33,000  Level Miami Center
Mon 01:05:26 AM 23.1222 -74.7061 116° Southeast 488 562 33,000  Level Miami Center
Mon 01:06:26 AM 23.0572 -74.5606 117° Southeast 483 556 33,000  Level Miami Center
Mon 01:07:26 AM 22.9969 -74.4308 116° Southeast 483 556 33,000  Level Miami Center
Mon 01:08:29 AM 22.9383 -74.3011 117° Southeast 488 562 33,000  Level Miami Center
Mon 01:09:26 AM 22.8775 -74.1692 117° Southeast 488 562 33,000  Level Miami Center
Mon 01:10:26 AM 22.8167 -74.0397 115° Southeast 488 562 33,000  Level Miami Center
Mon 01:11:27 AM 22.7597 -73.9103 116° Southeast 483 556 33,000  Level Miami Center
Mon 01:12:26 AM 22.7008 -73.7811 119° Southeast 483 556 33,000  Level Miami Center
Mon 01:13:26 AM 22.6378 -73.6567 116° Southeast 478 550 33,000  Level Miami Center
Mon 01:14:26 AM 22.5806 -73.5278 118° Southeast 478 550 33,000  Level Miami Center
Mon 01:15:27 AM 22.5192 -73.4011 115° Southeast 478 550 33,000  Level Miami Center
Mon 01:16:26 AM 22.4686 -73.2856 117° Southeast 473 544 33,000  Level Miami Center
Mon 01:17:26 AM 22.4092 -73.1592 117° Southeast 473 544 33,000  Level Miami Center
Mon 01:18:26 AM 22.3475 -73.0308 116° Southeast 468 539 33,000  Level Miami Center
Mon 01:19:26 AM 22.2878 -72.9003 117° Southeast 468 539 33,000  Level Miami Center
Mon 01:20:27 AM 22.2281 -72.7742 117° Southeast 468 539 33,000  Level Miami Center
Mon 01:21:26 AM 22.1683 -72.6483 118° Southeast 468 539 33,000  Level Miami Center
Mon 01:22:26 AM 22.1061 -72.5203 117° Southeast 468 539 33,000  Level Miami Center
Mon 01:23:27 AM 22.0461 -72.3947 117° Southeast 468 539 33,000  Level Miami Center
Mon 01:24:27 AM 21.9861 -72.2669 117° Southeast 468 539 33,000  Level Miami Center
Mon 01:25:26 AM 21.9236 -72.1372 117° Southeast 468 539 33,000  Level Miami Center
Mon 01:26:26 AM 21.8633 -72.0119 117° Southeast 473 544 33,000  Level Miami Center
Mon 01:27:26 AM 21.8031 -71.8844 118° Southeast 473 544 33,000  Level Miami Center
Mon 01:28:26 AM 21.7403 -71.7550 118° Southeast 473 544 33,000  Level Miami Center
Mon 01:29:26 AM 21.6797 -71.6300 118° Southeast 473 544 33,000  Level Miami Center
Mon 01:30:26 AM 21.6192 -71.5053 117° Southeast 467 537 33,000  Level Miami Center
Mon 01:31:26 AM 21.5583 -71.3783 118° Southeast 467 537 33,000  Level Miami Center
Mon 01:32:26 AM 21.4953 -71.2517 118° Southeast 467 537 33,000  Level Miami Center
Mon 01:33:26 AM 21.4275 -71.1142 128° Southeast 467 537 33,000  Level Miami Center
Mon 01:34:26 AM 21.3528 -71.0106 127° Southeast 467 537 33,000  Level Miami Center
Mon 01:35:26 AM 21.2578 -70.8744 127° Southeast 454 522 33,000  Level Miami Center
Mon 01:36:26 AM 21.1783 -70.7625 127° Southeast 471 542 33,000  Level Miami Center
Mon 01:37:26 AM 21.0967 -70.6483 127° Southeast 483 556 33,000  Level Miami Center
Mon 01:38:26 AM 21.0147 -70.5322 126° Southeast 483 556 33,000  Level Miami Center
Mon 01:39:26 AM 20.9350 -70.4161 128° Southeast 488 562 33,000  Level Miami Center
Mon 01:40:26 AM 20.8531 -70.3025 128° Southeast 488 562 33,000  Level Miami Center
Mon 01:41:26 AM 20.7711 -70.1892 126° Southeast 488 562 33,000  Level Miami Center
Mon 01:42:28 AM 20.6911 -70.0711 128° Southeast 488 562 33,000  Level Miami Center
Mon 01:43:28 AM 20.6089 -69.9581 127° Southeast 488 562 33,000  Level Miami Center
Mon 01:44:28 AM 20.5444 -69.8661 128° Southeast 488 562 33,000  Level Miami Center
Mon 01:45:28 AM 20.4556 -69.7447 127° Southeast 483 556 33,000  Level Miami Center
Mon 01:46:27 AM 20.3731 -69.6297 128° Southeast 483 556 33,000  Level Miami Center
Mon 01:47:28 AM 20.2908 -69.5169 129° Southeast 488 562 33,000  Level Miami Center
Mon 01:48:26 AM 20.2064 -69.4047 127° Southeast 488 562 33,000  Level Miami Center
Mon 01:49:26 AM 20.1258 -69.2900 129° Southeast 488 562 33,000  Level Miami Center
Mon 01:50:26 AM 20.0392 -69.1778 127° Southeast 493 567 33,000  Level Miami Center
Mon 01:51:28 AM 19.9564 -69.0614 128° Southeast 493 567 33,000  Level Miami Center
Mon 01:52:26 AM 19.8739 -68.9472 129° Southeast 493 567 33,000  Level Miami Center
Mon 01:53:27 AM 19.7889 -68.8356 127° Southeast 493 567 33,000  Level Miami Center
Mon 01:54:27 AM 19.7061 -68.7194 126° Southeast 498 573 33,000  Level Miami Center
Mon 01:55:26 AM 19.6250 -68.6011 130° Southeast 498 573 33,000  Level Miami Center
Mon 01:56:28 AM 19.5358 -68.4900 127° Southeast 498 573 33,000  Level Miami Center
Mon 01:57:26 AM 19.4528 -68.3744 128° Southeast 498 573 33,000  Level Miami Center
Mon 01:58:26 AM 19.3675 -68.2569 128° Southeast 498 573 33,000  Level Miami Center
Mon 01:59:26 AM 19.2844 -68.1458 128° Southeast 498 573 33,000  Level Miami Center
Mon 02:00:27 AM 19.2033 -68.0350 127° Southeast 493 567 33,000  Level Miami Center
Mon 02:01:26 AM 19.1244 -67.9239 133° Southeast 487 560 33,000  Level Miami Center
Mon 02:02:26 AM 19.0336 -67.8225 140° Southeast 482 555 33,000  Level Miami Center
Mon 02:03:26 AM 18.9328 -67.7328 140° Southeast 477 549 33,000  Level Miami Center
Mon 02:04:39 AM 18.8000 -67.6167 137° Southeast 480 552 33,000  Level San Juan Center
Mon 02:05:40 AM 18.7000 -67.5167 142° Southeast 490 564 33,000  Level San Juan Center
Mon 02:06:40 AM 18.6000 -67.4333 140° Southeast 490 564 33,000  Level San Juan Center
Mon 02:07:41 AM 18.4667 -67.3167 136° Southeast 500 575 33,000  Level San Juan Center
Mon 02:08:41 AM 18.3667 -67.2167 136° Southeast 500 575 33,000  Level San Juan Center
Mon 02:09:41 AM 18.2667 -67.1167 136° Southeast 500 575 33,000  Level San Juan Center
Mon 02:10:41 AM 18.1667 -67.0167 142° Southeast 490 564 33,000  Level San Juan Center
Mon 02:11:42 AM 18.0667 -66.9333 136° Southeast 490 564 33,000  Level San Juan Center
Mon 02:12:42 AM 17.9667 -66.8333 142° Southeast 490 564 33,000 -149 Level San Juan Center
Mon 02:13:43 AM 17.8667 -66.7500 136° Southeast 490 564 32,700 -645 Descending San Juan Center
Mon 02:14:43 AM 17.7667 -66.6500 142° Southeast 480 552 31,700 -843 Descending San Juan Center
Mon 02:15:44 AM 17.6667 -66.5667 136° Southeast 470 541 31,000 -347 Descending San Juan Center
Mon 02:16:44 AM 17.5667 -66.4667 142° Southeast 460 529 31,000  Level San Juan Center
Mon 02:17:44 AM 17.4667 -66.3833 136° Southeast 480 552 31,000  Level San Juan Center
Mon 02:18:45 AM 17.3667 -66.2833 136° Southeast 500 575 31,000  Level San Juan Center
Mon 02:19:45 AM 17.2667 -66.1833 136° Southeast 500 575 31,000  Level San Juan Center
Mon 02:20:45 AM 17.1667 -66.0833 141° Southeast 500 575 31,000  Level San Juan Center
Mon 02:21:46 AM 17.0667 -66.0000 136° Southeast 490 564 31,000  Level San Juan Center
Mon 02:22:46 AM 16.9667 -65.9000 144° Southeast 480 552 31,000  Level San Juan Center
Mon 02:23:46 AM 16.8333 -65.8000 136° Southeast 480 552 31,000  Level San Juan Center
Mon 02:24:47 AM 16.7333 -65.7000 136° Southeast 480 552 31,000  Level San Juan Center
Mon 02:25:47 AM 16.6333 -65.6000 136° Southeast 480 552 31,000  Level San Juan Center
Mon 02:26:47 AM 16.5500 -65.5167 141° Southeast 470 541 31,000  Level San Juan Center
Mon 02:27:48 AM 16.4500 -65.4333 136° Southeast 470 541 31,000  Level San Juan Center
Mon 02:28:48 AM 16.3500 -65.3333 141° Southeast 480 552 31,000  Level San Juan Center
Mon 02:29:49 AM 16.2500 -65.2500 136° Southeast 480 552 31,000  Level San Juan Center
Mon 02:30:49 AM 16.1500 -65.1500 146° Southeast 480 552 31,000  Level San Juan Center
Mon 02:31:49 AM 16.0333 -65.0667 141° Southeast 480 552 31,000  Level San Juan Center
Mon 02:32:50 AM 15.9333 -64.9833 141° Southeast 480 552 31,000  Level San Juan Center
Mon 02:33:50 AM 15.8333 -64.9000 136° Southeast 470 541 31,000  Level San Juan Center
Mon 02:34:50 AM 15.7333 -64.8000 136° Southeast 470 541 31,000  Level San Juan Center
Mon 02:36:51 AM 15.5500 -64.6167 136° Southeast 480 552 31,000  Level San Juan Center
Mon 02:37:51 AM 15.4500 -64.5167 141° Southeast 480 552 31,000  Level San Juan Center
Mon 02:38:52 AM 15.3500 -64.4333 141° Southeast 470 541 31,000 -50 Level San Juan Center
Mon 02:39:52 AM 15.2500 -64.3500 141° Southeast 460 529 30,900  Descending San Juan Center
Mon 02:40:53 AM 15.1500 -64.2667 136° Southeast 460 529 31,000 50 Climbing San Juan Center
Mon 02:41:53 AM 15.0667 -64.1833 149° Southeast 460 529 31,000  Level San Juan Center
Mon 02:49:49 AM 14.2009 -63.6475 150° Southeast  Level FlightAware Approximate
Mon 02:50:49 AM 14.0902 -63.5817 149° Southeast  Level FlightAware Approximate
Mon 02:51:49 AM 13.9805 -63.5144 149° Southeast  Level FlightAware Approximate
Mon 02:52:49 AM 13.8707 -63.4471 149° Southeast  Level FlightAware Approximate
Mon 02:53:49 AM 13.7610 -63.3798 149° Southeast  Level FlightAware Approximate
Mon 02:54:49 AM 13.6512 -63.3126 149° Southeast  Level FlightAware Approximate
Mon 02:55:49 AM 13.5414 -63.2455 149° Southeast  Level FlightAware Approximate
Mon 02:56:49 AM 13.4315 -63.1785 149° Southeast  Level FlightAware Approximate
Mon 02:57:49 AM 13.3217 -63.1115 159° South  Level FlightAware Approximate
Mon 02:58:49 AM 13.2033 -63.0644 146° Southeast  Level FlightAware Approximate
Mon 02:59:49 AM 13.0969 -62.9918 146° Southeast  Level FlightAware Approximate
Mon 03:00:49 AM 12.9904 -62.9194 146° Southeast  Level FlightAware Approximate
Mon 03:01:49 AM 12.8839 -62.8470 146° Southeast  Level FlightAware Approximate
Mon 03:02:49 AM 12.7774 -62.7747 146° Southeast  Level FlightAware Approximate
Mon 03:03:49 AM 12.6709 -62.7024 147° Southeast  Level FlightAware Approximate
Mon 03:04:49 AM 12.5644 -62.6302 147° Southeast  Level FlightAware Approximate
Mon 03:05:49 AM 12.4578 -62.5580 147° Southeast  Level FlightAware Approximate
Mon 03:06:49 AM 12.3513 -62.4860 147° Southeast  Level FlightAware Approximate
Mon 03:07:49 AM 12.2447 -62.4139 147° Southeast  Level FlightAware Approximate
Mon 03:08:49 AM 12.1381 -62.3420 147° Southeast  Level FlightAware Approximate
Mon 03:09:49 AM 12.0314 -62.2701 147° Southeast  Level FlightAware Approximate
Mon 03:10:49 AM 11.9248 -62.1982 173° South  Level FlightAware Approximate
Mon 03:11:49 AM 11.7982 -62.1823 144° Southeast  Level FlightAware Approximate
Mon 03:12:49 AM 11.6955 -62.1047 144° Southeast  Level FlightAware Approximate
Mon 03:13:49 AM 11.5927 -62.0272 144° Southeast  Level FlightAware Approximate
Mon 03:14:49 AM 11.4900 -61.9498 144° Southeast  Level FlightAware Approximate
Mon 03:15:49 AM 11.3872 -61.8724 144° Southeast  Level FlightAware Approximate
Mon 03:16:49 AM 11.2844 -61.7951 144° Southeast  Level FlightAware Approximate
Mon 03:17:49 AM 11.1816 -61.7178 144° Southeast  Level FlightAware Approximate
Mon 03:18:49 AM 11.0788 -61.6406 144° Southeast  Level FlightAware Approximate
Mon 03:19:49 AM 10.9759 -61.5634 144° Southeast  Level FlightAware Approximate
Mon 03:20:49 AM 10.8730 -61.4863 144° Southeast  Level FlightAware Approximate
Mon 03:21:49 AM 10.7701 -61.4093 144° Southeast  Level FlightAware Approximate
Mon 03:22:49 AM 10.6672 -61.3323 144° Southeast  Level FlightAware Approximate
Mon 03:23:49 AM 10.5643 -61.2553 144° Southeast  Level FlightAware Approximate
Mon 03:24:49 AM 10.4614 -61.1784 144° Southeast  Level FlightAware Approximate
Mon 03:25:49 AM 10.3584 -61.1016 144° Southeast  Level FlightAware Approximate
Mon 03:26:49 AM 10.2554 -61.0248 144° Southeast  Level FlightAware Approximate
Mon 03:27:49 AM 10.1524 -60.9480 144° Southeast  Level FlightAware Approximate
Mon 03:28:49 AM 10.0494 -60.8713 144° Southeast  Level FlightAware Approximate
Mon 03:29:49 AM 9.9463 -60.7947 144° Southeast  Level FlightAware Approximate
Mon 03:30:49 AM 9.8433 -60.7181 144° Southeast  Level FlightAware Approximate
Mon 03:31:49 AM 9.7402 -60.6415 144° Southeast  Level FlightAware Approximate
Mon 03:32:49 AM 9.6371 -60.5650 144° Southeast  Level FlightAware Approximate
Mon 03:33:49 AM 9.5340 -60.4886 144° Southeast  Level FlightAware Approximate
Mon 03:34:49 AM 9.4309 -60.4122 144° Southeast  Level FlightAware Approximate
Mon 03:35:49 AM 9.3277 -60.3358 153° Southeast  Level FlightAware Approximate
Mon 03:36:49 AM 9.2138 -60.2772 153° Southeast  Level FlightAware Approximate
Mon 03:37:49 AM 9.0999 -60.2187 153° Southeast  Level FlightAware Approximate
Mon 03:38:49 AM 8.9860 -60.1603 153° Southeast  Level FlightAware Approximate
Mon 03:39:49 AM 8.8720 -60.1018 153° Southeast  Level FlightAware Approximate
Mon 03:40:49 AM 8.7581 -60.0434 153° Southeast  Level FlightAware Approximate
Mon 03:41:49 AM 8.6441 -59.9851 153° Southeast  Level FlightAware Approximate
Mon 03:42:49 AM 8.5302 -59.9267 153° Southeast  Level FlightAware Approximate
Mon 03:43:49 AM 8.4162 -59.8684 153° Southeast  Level FlightAware Approximate
Mon 03:44:49 AM 8.3022 -59.8102 153° Southeast  Level FlightAware Approximate
Mon 03:45:49 AM 8.1882 -59.7519 153° Southeast  Level FlightAware Approximate
Mon 03:46:49 AM 8.0742 -59.6937 153° Southeast  Level FlightAware Approximate
Mon 03:47:49 AM 7.9602 -59.6356 153° Southeast  Level FlightAware Approximate
Mon 03:48:49 AM 7.8462 -59.5774 153° Southeast  Level FlightAware Approximate
Mon 03:49:49 AM 7.7322 -59.5193 153° Southeast  Level FlightAware Approximate
Mon 03:50:49 AM 7.6181 -59.4613 153° Southeast  Level FlightAware Approximate
Mon 03:51:49 AM 7.5041 -59.4032 153° Southeast  Level FlightAware Approximate
Mon 03:52:49 AM 7.3901 -59.3452 153° Southeast  Level FlightAware Approximate
Mon 03:53:49 AM 7.2760 -59.2872 153° Southeast  Level FlightAware Approximate
Mon 03:54:49 AM 7.1619 -59.2293 153° Southeast  Level FlightAware Approximate
Mon 03:55:49 AM 7.0479 -59.1714 153° Southeast  Level FlightAware Approximate
Mon 03:56:49 AM 6.9338 -59.1135 153° Southeast  Level FlightAware Approximate
Mon 03:57:49 AM 6.8197 -59.0556 153° Southeast  Level FlightAware Approximate
Mon 03:58:49 AM 6.7056 -58.9978 153° Southeast  Level FlightAware Approximate
Mon 03:59:49 AM 6.5915 -58.9400 153° Southeast  Level FlightAware Approximate
Mon 04:00:49 AM 6.4774 -58.8822 153° Southeast  Level FlightAware Approximate
Mon 04:01:49 AM 6.3633 -58.8244 153° Southeast  Level FlightAware Approximate
Mon 04:02:49 AM 6.2492 -58.7667 153° Southeast  Level FlightAware Approximate
Mon 04:03:49 AM 6.1351 -58.7090 153° Southeast  Level FlightAware Approximate
Mon 04:04:49 AM 6.0209 -58.6513 153° Southeast  Level FlightAware Approximate
Mon 04:05:49 AM 5.9068 -58.5937 153° Southeast  Level FlightAware Approximate
Mon 04:06:49 AM 5.7927 -58.5360 153° Southeast  Level FlightAware Approximate
Mon 04:07:49 AM 5.6785 -58.4784 153° Southeast  Level FlightAware Approximate
Mon 04:08:49 AM 5.5644 -58.4208 153° Southeast  Level FlightAware Approximate
Mon 04:09:49 AM 5.4502 -58.3633 153° Southeast  Level FlightAware Approximate
Mon 04:10:49 AM 5.3361 -58.3057 153° Southeast  Level FlightAware Approximate
Mon 04:11:49 AM 5.2219 -58.2482 153° Southeast  Level FlightAware Approximate
Mon 04:12:49 AM 5.1077 -58.1907 153° Southeast  Level FlightAware Approximate
Mon 04:13:49 AM 4.9935 -58.1333 153° Southeast  Level FlightAware Approximate
Mon 04:14:49 AM 4.8794 -58.0758 153° Southeast  Level FlightAware Approximate
Mon 04:15:49 AM 4.7652 -58.0183 153° Southeast  Level FlightAware Approximate
Mon 04:16:49 AM 4.6510 -57.9609 153° Southeast  Level FlightAware Approximate
Mon 04:17:49 AM 4.5368 -57.9035 153° Southeast  Level FlightAware Approximate
Mon 04:18:49 AM 4.4226 -57.8461 153° Southeast  Level FlightAware Approximate
Mon 04:19:49 AM 4.3084 -57.7888 153° Southeast  Level FlightAware Approximate
Mon 04:20:49 AM 4.1942 -57.7314 153° Southeast  Level FlightAware Approximate
Mon 04:21:49 AM 4.0804 -57.6731 153° Southeast  Level FlightAware Approximate
Mon 04:22:49 AM 3.9667 -57.6148 153° Southeast  Level FlightAware Approximate
Mon 04:23:49 AM 3.8530 -57.5566 153° Southeast  Level FlightAware Approximate
Mon 04:24:49 AM 3.7392 -57.4983 153° Southeast  Level FlightAware Approximate
Mon 04:25:49 AM 3.6255 -57.4401 153° Southeast  Level FlightAware Approximate
Mon 04:26:49 AM 3.5117 -57.3818 153° Southeast  Level FlightAware Approximate
Mon 04:27:49 AM 3.3980 -57.3236 153° Southeast  Level FlightAware Approximate
Mon 04:28:49 AM 3.2843 -57.2654 153° Southeast  Level FlightAware Approximate
Mon 04:29:49 AM 3.1705 -57.2072 153° Southeast  Level FlightAware Approximate
Mon 04:30:49 AM 3.0567 -57.1491 153° Southeast  Level FlightAware Approximate
Mon 04:31:49 AM 2.9430 -57.0909 153° Southeast  Level FlightAware Approximate
Mon 04:32:49 AM 2.8292 -57.0328 153° Southeast  Level FlightAware Approximate
Mon 04:33:49 AM 2.7155 -56.9746 153° Southeast  Level FlightAware Approximate
Mon 04:34:49 AM 2.6017 -56.9165 153° Southeast  Level FlightAware Approximate
Mon 04:35:49 AM 2.4879 -56.8584 153° Southeast  Level FlightAware Approximate
Mon 04:36:49 AM 2.3741 -56.8003 153° Southeast  Level FlightAware Approximate
Mon 04:37:49 AM 2.2604 -56.7422 153° Southeast  Level FlightAware Approximate
Mon 04:38:49 AM 2.1466 -56.6841 153° Southeast  Level FlightAware Approximate
Mon 04:39:49 AM 2.0328 -56.6260 153° Southeast  Level FlightAware Approximate
Mon 04:40:49 AM 1.9190 -56.5679 153° Southeast  Level FlightAware Approximate
Mon 04:41:49 AM 1.8052 -56.5099 153° Southeast  Level FlightAware Approximate
Mon 04:42:49 AM 1.6914 -56.4518 153° Southeast  Level FlightAware Approximate
Mon 04:43:49 AM 1.5776 -56.3938 153° Southeast  Level FlightAware Approximate
Mon 04:44:49 AM 1.4639 -56.3357 153° Southeast  Level FlightAware Approximate
Mon 04:45:49 AM 1.3501 -56.2777 153° Southeast  Level FlightAware Approximate
Mon 04:46:49 AM 1.2363 -56.2197 153° Southeast  Level FlightAware Approximate
Mon 04:47:49 AM 1.1225 -56.1616 167° South  Level FlightAware Approximate
Mon 04:48:49 AM 0.9982 -56.1324 153° Southeast  Level FlightAware Approximate
Mon 04:49:49 AM 0.8845 -56.0743 153° Southeast  Level FlightAware Approximate
Mon 04:50:49 AM 0.7707 -56.0161 153° Southeast  Level FlightAware Approximate
Mon 04:51:49 AM 0.6570 -55.9580 153° Southeast  Level FlightAware Approximate
Mon 04:52:49 AM 0.5433 -55.8998 153° Southeast  Level FlightAware Approximate
Mon 04:53:49 AM 0.4295 -55.8417 153° Southeast  Level FlightAware Approximate
Mon 04:54:49 AM 0.3158 -55.7836 153° Southeast  Level FlightAware Approximate
Mon 04:55:49 AM 0.2021 -55.7254 153° Southeast  Level FlightAware Approximate
Mon 04:56:49 AM 0.0883 -55.6673 153° Southeast  Level FlightAware Approximate
Mon 04:57:49 AM -0.0254 -55.6092 153° Southeast  Level FlightAware Approximate
Mon 04:58:49 AM -0.1391 -55.5510 153° Southeast  Level FlightAware Approximate
Mon 04:59:49 AM -0.2529 -55.4929 153° Southeast  Level FlightAware Approximate
Mon 05:00:49 AM -0.3666 -55.4348 153° Southeast  Level FlightAware Approximate
Mon 05:01:49 AM -0.4803 -55.3767 153° Southeast  Level FlightAware Approximate
Mon 05:02:49 AM -0.5941 -55.3185 153° Southeast  Level FlightAware Approximate
Mon 05:03:49 AM -0.7078 -55.2604 153° Southeast  Level FlightAware Approximate
Mon 05:04:49 AM -0.8215 -55.2022 153° Southeast  Level FlightAware Approximate
Mon 05:05:49 AM -0.9353 -55.1441 153° Southeast  Level FlightAware Approximate
Mon 05:06:49 AM -1.0490 -55.0859 153° Southeast  Level FlightAware Approximate
Mon 05:07:49 AM -1.1627 -55.0278 153° Southeast  Level FlightAware Approximate
Mon 05:08:49 AM -1.2765 -54.9696 153° Southeast  Level FlightAware Approximate
Mon 05:09:49 AM -1.3902 -54.9115 153° Southeast  Level FlightAware Approximate
Mon 05:10:49 AM -1.5039 -54.8533 153° Southeast  Level FlightAware Approximate
Mon 05:11:49 AM -1.6176 -54.7951 153° Southeast  Level FlightAware Approximate
Mon 05:12:49 AM -1.7314 -54.7369 153° Southeast  Level FlightAware Approximate
Mon 05:13:49 AM -1.8451 -54.6788 153° Southeast  Level FlightAware Approximate
Mon 05:14:49 AM -1.9588 -54.6206 153° Southeast  Level FlightAware Approximate
Mon 05:15:49 AM -2.0725 -54.5624 153° Southeast  Level FlightAware Approximate
Mon 05:16:49 AM -2.1862 -54.5041 153° Southeast  Level FlightAware Approximate
Mon 05:17:49 AM -2.2999 -54.4459 153° Southeast  Level FlightAware Approximate
Mon 05:18:49 AM -2.4137 -54.3877 153° Southeast  Level FlightAware Approximate
Mon 05:19:49 AM -2.5274 -54.3294 153° Southeast  Level FlightAware Approximate
Mon 05:20:49 AM -2.6411 -54.2712 153° Southeast  Level FlightAware Approximate
Mon 05:21:49 AM -2.7548 -54.2129 153° Southeast  Level FlightAware Approximate
Mon 05:22:49 AM -2.8685 -54.1547 153° Southeast  Level FlightAware Approximate
Mon 05:23:49 AM -2.9822 -54.0964 153° Southeast  Level FlightAware Approximate
Mon 05:24:49 AM -3.0958 -54.0381 153° Southeast  Level FlightAware Approximate
Mon 05:25:49 AM -3.2095 -53.9798 153° Southeast  Level FlightAware Approximate
Mon 05:26:49 AM -3.3232 -53.9215 153° Southeast  Level FlightAware Approximate
Mon 05:27:49 AM -3.4369 -53.8631 153° Southeast  Level FlightAware Approximate
Mon 05:28:49 AM -3.5506 -53.8048 153° Southeast  Level FlightAware Approximate
Mon 05:29:49 AM -3.6643 -53.7464 153° Southeast  Level FlightAware Approximate
Mon 05:30:49 AM -3.7779 -53.6880 153° Southeast  Level FlightAware Approximate
Mon 05:31:49 AM -3.8916 -53.6297 153° Southeast  Level FlightAware Approximate
Mon 05:32:49 AM -4.0053 -53.5712 153° Southeast  Level FlightAware Approximate
Mon 05:33:49 AM -4.1189 -53.5128 153° Southeast  Level FlightAware Approximate
Mon 05:34:49 AM -4.2326 -53.4544 153° Southeast  Level FlightAware Approximate
Mon 05:35:49 AM -4.3462 -53.3959 153° Southeast  Level FlightAware Approximate
Mon 05:36:49 AM -4.4599 -53.3374 153° Southeast  Level FlightAware Approximate
Mon 05:37:49 AM -4.5735 -53.2789 153° Southeast  Level FlightAware Approximate
Mon 05:38:49 AM -4.6872 -53.2204 153° Southeast  Level FlightAware Approximate
Mon 05:39:49 AM -4.8008 -53.1619 153° Southeast  Level FlightAware Approximate
Mon 05:40:49 AM -4.9144 -53.1034 153° Southeast  Level FlightAware Approximate
Mon 05:41:49 AM -5.0280 -53.0448 153° Southeast  Level FlightAware Approximate
Mon 05:42:49 AM -5.1417 -52.9862 153° Southeast  Level FlightAware Approximate
Mon 05:43:49 AM -5.2553 -52.9276 153° Southeast  Level FlightAware Approximate
Mon 05:44:49 AM -5.3689 -52.8689 153° Southeast  Level FlightAware Approximate
Mon 05:45:49 AM -5.4825 -52.8103 153° Southeast  Level FlightAware Approximate
Mon 05:46:49 AM -5.5961 -52.7516 153° Southeast  Level FlightAware Approximate
Mon 05:47:49 AM -5.7097 -52.6929 153° Southeast  Level FlightAware Approximate
Mon 05:48:49 AM -5.8232 -52.6342 153° Southeast  Level FlightAware Approximate
Mon 05:49:49 AM -5.9368 -52.5754 153° Southeast  Level FlightAware Approximate
Mon 05:50:49 AM -6.0504 -52.5167 153° Southeast  Level FlightAware Approximate
Mon 05:51:49 AM -6.1640 -52.4579 153° Southeast  Level FlightAware Approximate
Mon 05:52:49 AM -6.2775 -52.3991 153° Southeast  Level FlightAware Approximate
Mon 05:53:49 AM -6.3911 -52.3402 153° Southeast  Level FlightAware Approximate
Mon 05:54:49 AM -6.5046 -52.2813 153° Southeast  Level FlightAware Approximate
Mon 05:55:49 AM -6.6182 -52.2224 153° Southeast  Level FlightAware Approximate
Mon 05:56:49 AM -6.7317 -52.1635 153° Southeast  Level FlightAware Approximate
Mon 05:57:49 AM -6.8452 -52.1045 153° Southeast  Level FlightAware Approximate
Mon 05:58:49 AM -6.9587 -52.0456 153° Southeast  Level FlightAware Approximate
Mon 05:59:49 AM -7.0722 -51.9866 153° Southeast  Level FlightAware Approximate
Mon 06:00:49 AM -7.1857 -51.9275 153° Southeast  Level FlightAware Approximate
Mon 06:01:49 AM -7.2992 -51.8685 153° Southeast  Level FlightAware Approximate
Mon 06:02:49 AM -7.4127 -51.8093 153° Southeast  Level FlightAware Approximate
Mon 06:03:49 AM -7.5262 -51.7502 153° Southeast  Level FlightAware Approximate
Mon 06:04:49 AM -7.6397 -51.6911 153° Southeast  Level FlightAware Approximate
Mon 06:05:49 AM -7.7531 -51.6319 153° Southeast  Level FlightAware Approximate
Mon 06:06:49 AM -7.8666 -51.5726 153° Southeast  Level FlightAware Approximate
Mon 06:07:49 AM -7.9800 -51.5134 153° Southeast  Level FlightAware Approximate
Mon 06:08:49 AM -8.0935 -51.4541 153° Southeast  Level FlightAware Approximate
Mon 06:09:49 AM -8.2069 -51.3948 153° Southeast  Level FlightAware Approximate
Mon 06:10:49 AM -8.3203 -51.3354 153° Southeast  Level FlightAware Approximate
Mon 06:11:49 AM -8.4337 -51.2760 153° Southeast  Level FlightAware Approximate
Mon 06:12:49 AM -8.5471 -51.2166 153° Southeast  Level FlightAware Approximate
Mon 06:13:49 AM -8.6605 -51.1571 153° Southeast  Level FlightAware Approximate
Mon 06:14:49 AM -8.7739 -51.0976 153° Southeast  Level FlightAware Approximate
Mon 06:15:49 AM -8.8873 -51.0381 153° Southeast  Level FlightAware Approximate
Mon 06:16:49 AM -9.0007 -50.9785 153° Southeast  Level FlightAware Approximate
Mon 06:17:49 AM -9.1140 -50.9189 153° Southeast  Level FlightAware Approximate
Mon 06:18:49 AM -9.2274 -50.8593 153° Southeast  Level FlightAware Approximate
Mon 06:19:49 AM -9.3407 -50.7996 153° Southeast  Level FlightAware Approximate
Mon 06:20:49 AM -9.4540 -50.7399 153° Southeast  Level FlightAware Approximate
Mon 06:21:49 AM -9.5674 -50.6801 153° Southeast  Level FlightAware Approximate
Mon 06:22:49 AM -9.6807 -50.6203 153° Southeast  Level FlightAware Approximate
Mon 06:23:49 AM -9.7940 -50.5605 152° Southeast  Level FlightAware Approximate
Mon 06:24:49 AM -9.9072 -50.5006 152° Southeast  Level FlightAware Approximate
Mon 06:25:49 AM -10.0205 -50.4407 152° Southeast  Level FlightAware Approximate
Mon 06:26:49 AM -10.1338 -50.3807 152° Southeast  Level FlightAware Approximate
Mon 06:27:49 AM -10.2470 -50.3207 152° Southeast  Level FlightAware Approximate
Mon 06:28:49 AM -10.3603 -50.2606 152° Southeast  Level FlightAware Approximate
Mon 06:29:49 AM -10.4735 -50.2005 152° Southeast  Level FlightAware Approximate
Mon 06:30:49 AM -10.5867 -50.1404 152° Southeast  Level FlightAware Approximate
Mon 06:31:49 AM -10.6999 -50.0802 152° Southeast  Level FlightAware Approximate
Mon 06:32:49 AM -10.8131 -50.0200 152° Southeast  Level FlightAware Approximate
Mon 06:33:49 AM -10.9263 -49.9597 152° Southeast  Level FlightAware Approximate
Mon 06:34:49 AM -11.0395 -49.8994 152° Southeast  Level FlightAware Approximate
Mon 06:35:49 AM -11.1527 -49.8390 152° Southeast  Level FlightAware Approximate
Mon 06:36:49 AM -11.2658 -49.7786 152° Southeast  Level FlightAware Approximate
Mon 06:37:49 AM -11.3790 -49.7181 152° Southeast  Level FlightAware Approximate
Mon 06:38:49 AM -11.4921 -49.6576 152° Southeast  Level FlightAware Approximate
Mon 06:39:49 AM -11.6052 -49.5971 152° Southeast  Level FlightAware Approximate
Mon 06:40:49 AM -11.7183 -49.5365 152° Southeast  Level FlightAware Approximate
Mon 06:41:49 AM -11.8314 -49.4758 152° Southeast  Level FlightAware Approximate
Mon 06:42:49 AM -11.9445 -49.4151 152° Southeast  Level FlightAware Approximate
Mon 06:43:49 AM -12.0575 -49.3543 152° Southeast  Level FlightAware Approximate
Mon 06:44:49 AM -12.1706 -49.2935 152° Southeast  Level FlightAware Approximate
Mon 06:45:49 AM -12.2836 -49.2327 152° Southeast  Level FlightAware Approximate
Mon 06:46:49 AM -12.3966 -49.1717 152° Southeast  Level FlightAware Approximate
Mon 06:47:49 AM -12.5096 -49.1108 152° Southeast  Level FlightAware Approximate
Mon 06:48:49 AM -12.6226 -49.0498 152° Southeast  Level FlightAware Approximate
Mon 06:49:49 AM -12.7356 -48.9887 152° Southeast  Level FlightAware Approximate
Mon 06:50:49 AM -12.8486 -48.9276 152° Southeast  Level FlightAware Approximate
Mon 06:51:49 AM -12.9615 -48.8664 152° Southeast  Level FlightAware Approximate
Mon 06:52:49 AM -13.0745 -48.8051 152° Southeast  Level FlightAware Approximate
Mon 06:53:49 AM -13.1874 -48.7439 152° Southeast  Level FlightAware Approximate
Mon 06:54:49 AM -13.3003 -48.6825 152° Southeast  Level FlightAware Approximate
Mon 06:55:49 AM -13.4132 -48.6211 152° Southeast  Level FlightAware Approximate
Mon 06:56:49 AM -13.5261 -48.5596 152° Southeast  Level FlightAware Approximate
Mon 06:57:49 AM -13.6389 -48.4981 152° Southeast  Level FlightAware Approximate
Mon 06:58:49 AM -13.7518 -48.4365 152° Southeast  Level FlightAware Approximate
Mon 06:59:49 AM -13.8646 -48.3749 152° Southeast  Level FlightAware Approximate
Mon 07:00:49 AM -13.9774 -48.3132 152° Southeast  Level FlightAware Approximate
Mon 07:01:49 AM -14.0902 -48.2514 152° Southeast  Level FlightAware Approximate
Mon 07:02:49 AM -14.2030 -48.1896 152° Southeast  Level FlightAware Approximate
Mon 07:03:49 AM -14.3158 -48.1277 152° Southeast  Level FlightAware Approximate
Mon 07:04:49 AM -14.4285 -48.0658 152° Southeast  Level FlightAware Approximate
Mon 07:05:49 AM -14.5413 -48.0037 152° Southeast  Level FlightAware Approximate
Mon 07:06:49 AM -14.6540 -47.9417 152° Southeast  Level FlightAware Approximate
Mon 07:07:49 AM -14.7667 -47.8795 152° Southeast  Level FlightAware Approximate
Mon 07:08:49 AM -14.8794 -47.8173 152° Southeast  Level FlightAware Approximate
Mon 07:09:49 AM -14.9921 -47.7551 152° Southeast  Level FlightAware Approximate
Mon 07:10:49 AM -15.1047 -47.6927 152° Southeast  Level FlightAware Approximate
Mon 07:11:49 AM -15.2174 -47.6303 152° Southeast  Level FlightAware Approximate
Mon 07:12:49 AM -15.3300 -47.5679 152° Southeast  Level FlightAware Approximate
Mon 07:13:49 AM -15.4426 -47.5053 152° Southeast  Level FlightAware Approximate
Mon 07:14:49 AM -15.5552 -47.4427 152° Southeast  Level FlightAware Approximate
Mon 07:15:49 AM -15.6678 -47.3801 152° Southeast  Level FlightAware Approximate
Mon 07:16:49 AM -15.7803 -47.3173 152° Southeast  Level FlightAware Approximate
Mon 07:17:49 AM -15.8928 -47.2545 152° Southeast  Level FlightAware Approximate
Mon 07:18:49 AM -16.0054 -47.1916 152° Southeast  Level FlightAware Approximate
Mon 07:19:49 AM -16.1178 -47.1287 152° Southeast  Level FlightAware Approximate
Mon 07:20:49 AM -16.2303 -47.0657 152° Southeast  Level FlightAware Approximate
Mon 07:21:49 AM -16.3428 -47.0026 152° Southeast  Level FlightAware Approximate
Mon 07:22:49 AM -16.4552 -46.9394 152° Southeast  Level FlightAware Approximate
Mon 07:23:49 AM -16.5676 -46.8762 152° Southeast  Level FlightAware Approximate
Mon 07:24:49 AM -16.6801 -46.8128 152° Southeast  Level FlightAware Approximate
Mon 07:25:49 AM -16.7924 -46.7495 152° Southeast  Level FlightAware Approximate
Mon 07:26:49 AM -16.9048 -46.6860 152° Southeast  Level FlightAware Approximate
Mon 07:27:49 AM -17.0172 -46.6225 152° Southeast  Level FlightAware Approximate
Mon 07:28:49 AM -17.1295 -46.5588 152° Southeast  Level FlightAware Approximate
Mon 07:29:49 AM -17.2418 -46.4952 152° Southeast  Level FlightAware Approximate
Mon 07:30:49 AM -17.3541 -46.4314 152° Southeast  Level FlightAware Approximate
Mon 07:31:49 AM -17.4663 -46.3675 152° Southeast  Level FlightAware Approximate
Mon 07:32:49 AM -17.5786 -46.3036 151° Southeast  Level FlightAware Approximate
Mon 07:33:49 AM -17.6908 -46.2396 151° Southeast  Level FlightAware Approximate
Mon 07:34:49 AM -17.8030 -46.1755 151° Southeast  Level FlightAware Approximate
Mon 07:35:49 AM -17.9152 -46.1114 151° Southeast  Level FlightAware Approximate
Mon 07:36:49 AM -18.0273 -46.0471 151° Southeast  Level FlightAware Approximate
Mon 07:37:49 AM -18.1395 -45.9828 151° Southeast  Level FlightAware Approximate
Mon 07:38:49 AM -18.2516 -45.9184 151° Southeast  Level FlightAware Approximate
Mon 07:39:49 AM -18.3683 -45.8512 151° Southeast  Level FlightAware Approximate
Mon 07:40:49 AM -18.4850 -45.7840 151° Southeast  Level FlightAware Approximate
Mon 07:41:49 AM -18.6017 -45.7166 151° Southeast  Level FlightAware Approximate
Mon 07:42:49 AM -18.7184 -45.6492 151° Southeast  Level FlightAware Approximate
Mon 07:43:49 AM -18.8350 -45.5816 151° Southeast  Level FlightAware Approximate
Mon 07:44:49 AM -18.9516 -45.5140 151° Southeast  Level FlightAware Approximate
Mon 07:45:49 AM -19.0682 -45.4463 151° Southeast  Level FlightAware Approximate
Mon 07:46:49 AM -19.1848 -45.3785 151° Southeast  Level FlightAware Approximate
Mon 07:47:49 AM -19.3013 -45.3106 151° Southeast  Level FlightAware Approximate
Mon 07:48:49 AM -19.4178 -45.2426 151° Southeast  Level FlightAware Approximate
Mon 07:49:49 AM -19.5343 -45.1744 151° Southeast  Level FlightAware Approximate
Mon 07:50:49 AM -19.6508 -45.1063 151° Southeast  Level FlightAware Approximate
Mon 07:51:49 AM -19.7672 -45.0379 151° Southeast  Level FlightAware Approximate
Mon 07:52:49 AM -19.8836 -44.9696 151° Southeast  Level FlightAware Approximate
Mon 07:53:49 AM -20.0000 -44.9010 151° Southeast  Level FlightAware Approximate
Mon 07:54:49 AM -20.1164 -44.8324 151° Southeast  Level FlightAware Approximate
Mon 07:55:49 AM -20.2327 -44.7637 151° Southeast  Level FlightAware Approximate
Mon 07:56:49 AM -20.3490 -44.6949 151° Southeast  Level FlightAware Approximate
Mon 07:57:49 AM -20.4653 -44.6260 151° Southeast  Level FlightAware Approximate
Mon 07:58:49 AM -20.5815 -44.5570 151° Southeast  Level FlightAware Approximate
Mon 07:59:49 AM -20.6977 -44.4879 151° Southeast  Level FlightAware Approximate
Mon 08:00:49 AM -20.8139 -44.4186 151° Southeast  Level FlightAware Approximate
Mon 08:01:49 AM -20.9303 -44.3498 151° Southeast  Level FlightAware Approximate
Mon 08:02:49 AM -21.0465 -44.2803 151° Southeast  Level FlightAware Approximate
Mon 08:03:49 AM -21.1626 -44.2108 154° Southeast  Level FlightAware Approximate
Mon 08:04:49 AM -21.2818 -44.1476 151° Southeast  Level FlightAware Approximate
Mon 08:05:49 AM -21.3975 -44.0773 149° Southeast  Level FlightAware Approximate
Mon 08:06:49 AM -21.5114 -44.0035 149° Southeast  Level FlightAware Approximate
Mon 08:07:49 AM -21.6254 -43.9300 150° Southeast  Level FlightAware Approximate
Mon 08:08:49 AM -21.7411 -43.8594 151° Southeast  Level FlightAware Approximate
Mon 08:09:49 AM -21.8572 -43.7894 151° Southeast  Level FlightAware Approximate
Mon 08:10:49 AM -21.9732 -43.7193 151° Southeast  Level FlightAware Approximate
Mon 08:11:49 AM -22.0892 -43.6490 151° Southeast  Level FlightAware Approximate

Login

Don't have an account? Register now (free) for customized features, flight alerts, and more!